Weslaco, Texas
Current Conditions -  °F | °C
As of 3:35 AM on Friday 24 Oct 2014 (Local Time) from KT65 Reporting Station
Clear Clear  
Wind Chill: 65°   Ceiling: Unl
Heat Index: 65°   Visibility: 7mi
Dew Point: 62°   Wind: 0mph
Humidity: 91%   Direction: NA
Pressure: 30.07"   Gusts: NA
Location:  26.16°N, 97.99°W
Report Text: KT65 240835Z AUTO 00000KT 7SM CLR 18/17 A3007 RMK AO2 T01840169
Loading
Personal Weather Stations






























Interactive Weather Map
Tropical Storm Tracking
New forecast layout! Learn more

10-Day Weather Forecast

Advertisements
Track Severe Weather on mobile